Cairo, Egypt
Current Conditions -  °F | °C
As of 4:00 AM on Sunday 26 Oct 2014 (Local Time) from HECA Reporting Station
Haze Haze  
Wind Chill: 70°   Ceiling: Unl
Heat Index: 70°   Visibility: 2.5mi
Dew Point: 54°   Wind: 0mph
Humidity: 56%   Direction: NA
Pressure: 29.94"   Gusts: NA
Location:  30.06°N, 31.25°E
Report Text: HECA 260200Z 00000KT 4000 HZ NSC 21/12 Q1014 NOSIG
Loading
Personal Weather Stations






























Interactive Weather Map
Tropical Storm Tracking
New forecast layout! Learn more

10-Day Weather Forecast

Advertisements
Track Severe Weather on mobile